2MeteoStar Phoenix Sky Harbor International Airport FORECAST
Forecast For: Phoenix, Arizona
Mostly Cloudy
 
Currently: Phoenix Sky Harbor International Airport 15:51 GMT
Weather:Mostly Cloudy Humidity:27%
Temperature:26 ° C Wind:E 15 kph
Dew Point:6 ° C Pressure:1009 mb
Feels Like:26 ° C Visibility:16 km
Print Legend
24 Hour Weather Trace
Regional Observations
Daily Climate Plot
Monthly Climate Plot

Regional Radar Image
National Radar Image
Regional Satellite Image
National Satellite Image
Short Range Forecast Trace
Long Range Forecast Trace
NWS Forecast Discussion
16 Day Forecast
Radar For: Phoenix,AZ 10/19/2017 16:15 GMT
CLICK FOR LOOP




METAR:KPHX 191551Z 10008KT 10SM SCT150 BKN180 26/06 A2984 RMK AO2 SLP086 SHRA DSNT NE AND E-SE T02560056 =
TAF:

TAFPHX
TAF AMD
KPHX 191505Z 1915/2018 11006KT P6SM VCSH SCT120 BKN150
FM191600 12006KT P6SM FEW120 SCT150 SCT200
TEMPO 1919/1923 18008KT
FM192300 26010KT P6SM SCT250
FM200800 11008KT P6SM SCT250 =

NWS Forecast for:
Greater Phoenix Area


Visit the MeteoStar Home Page